createdAt,value
2022-12-27T00:00:19.348Z,50.885540
2022-12-27T00:01:19.391Z,50.885475
2022-12-27T00:02:19.411Z,50.885601
2022-12-27T00:03:19.445Z,50.885479
2022-12-27T00:04:19.373Z,50.885593
2022-12-27T00:05:19.328Z,50.885727
2022-12-27T00:06:19.364Z,50.885674
2022-12-27T00:07:19.354Z,50.885612
2022-12-27T00:08:19.392Z,50.885693
2022-12-27T00:09:19.326Z,50.885464
2022-12-27T00:10:19.296Z,50.885422
2022-12-27T00:11:19.322Z,50.885277
2022-12-27T00:12:19.319Z,50.885185
2022-12-27T00:13:19.330Z,50.885178
2022-12-27T00:14:19.315Z,50.885506
2022-12-27T00:15:19.303Z,50.885628
2022-12-27T00:16:19.522Z,50.885551
2022-12-27T00:17:19.313Z,50.885563
2022-12-27T00:18:19.358Z,50.885586
2022-12-27T00:19:19.259Z,50.885429
2022-12-27T00:20:19.305Z,50.885551
2022-12-27T00:21:19.285Z,50.885609
2022-12-27T00:22:19.333Z,50.885593
2022-12-27T00:23:19.260Z,50.885475
2022-12-27T00:24:19.258Z,50.885544
2022-12-27T00:25:19.272Z,50.885540
2022-12-27T00:26:19.212Z,50.885567
2022-12-27T00:27:19.268Z,50.885433
2022-12-27T00:28:19.228Z,50.885475
2022-12-27T00:29:19.228Z,50.885448
2022-12-27T00:30:19.241Z,50.885479
2022-12-27T00:31:19.269Z,50.885494
2022-12-27T00:32:19.192Z,50.885612
2022-12-27T00:33:19.262Z,50.885609
2022-12-27T00:34:19.196Z,50.885593
2022-12-27T00:35:19.218Z,50.885498
2022-12-27T00:36:19.204Z,50.885509
2022-12-27T00:37:19.164Z,50.885406
2022-12-27T00:38:19.227Z,50.885456
2022-12-27T00:39:19.162Z,50.885540
2022-12-27T00:40:19.157Z,50.885590
2022-12-27T00:41:19.162Z,50.885571
2022-12-27T00:42:19.186Z,50.885548
2022-12-27T00:43:19.285Z,50.885628
2022-12-27T00:44:19.152Z,50.885548
2022-12-27T00:45:19.148Z,50.885563
2022-12-27T00:46:19.234Z,50.885582
2022-12-27T00:47:19.151Z,50.885548
2022-12-27T00:48:19.091Z,50.885487
2022-12-27T00:49:19.151Z,50.885498
2022-12-27T00:50:19.153Z,50.885517
2022-12-27T00:51:19.149Z,50.885513
2022-12-27T00:52:19.130Z,50.885559
2022-12-27T00:53:19.123Z,50.885517
2022-12-27T00:54:19.153Z,50.885529
2022-12-27T00:55:19.060Z,50.885593
2022-12-27T00:56:19.095Z,50.885582
2022-12-27T00:57:19.092Z,50.885448
2022-12-27T00:58:19.052Z,50.885395
2022-12-27T00:59:19.072Z,50.885441
2022-12-27T01:00:19.119Z,50.885487
2022-12-27T01:01:19.155Z,50.885498
2022-12-27T01:02:19.071Z,50.885540
2022-12-27T01:03:19.062Z,50.885571
2022-12-27T01:04:19.048Z,50.885502
2022-12-27T01:05:19.043Z,50.885468
2022-12-27T01:06:19.070Z,50.885506
2022-12-27T01:07:19.017Z,50.885551
2022-12-27T01:08:18.977Z,50.885464
2022-12-27T01:09:19.000Z,50.885437
2022-12-27T01:10:18.983Z,50.885468
2022-12-27T01:11:19.053Z,50.885601
2022-12-27T01:12:18.983Z,50.885540
2022-12-27T01:13:18.958Z,50.885544
2022-12-27T01:14:18.977Z,50.885715
2022-12-27T01:15:18.985Z,50.885567
2022-12-27T01:16:19.096Z,50.885658
2022-12-27T01:17:18.963Z,50.885494
2022-12-27T01:18:18.940Z,50.885498
2022-12-27T01:19:18.957Z,50.885483
2022-12-27T01:20:19.068Z,50.885544
2022-12-27T01:21:18.929Z,50.885571
2022-12-27T01:22:18.999Z,50.885441
2022-12-27T01:23:19.919Z,50.885635
2022-12-27T01:24:18.926Z,50.885643
2022-12-27T01:25:18.932Z,50.885605
2022-12-27T01:26:18.892Z,50.885567
2022-12-27T01:27:18.945Z,50.885571
2022-12-27T01:28:18.920Z,50.885597
2022-12-27T01:29:18.898Z,50.885624
2022-12-27T01:30:18.911Z,50.885654
2022-12-27T01:31:18.911Z,50.885563
2022-12-27T01:32:18.902Z,50.885532
2022-12-27T01:33:18.889Z,50.885567
2022-12-27T01:34:18.899Z,50.885441
2022-12-27T01:35:18.859Z,50.885509
2022-12-27T01:36:19.882Z,50.885464
2022-12-27T01:37:18.836Z,50.885487
2022-12-27T01:38:18.871Z,50.885540
2022-12-27T01:39:18.870Z,50.885540
2022-12-27T01:40:18.878Z,50.885609
2022-12-27T01:41:18.828Z,50.885517
2022-12-27T01:42:18.839Z,50.885521
2022-12-27T01:43:18.851Z,50.885452
2022-12-27T01:44:18.817Z,50.885521
2022-12-27T01:45:18.794Z,50.885479
2022-12-27T01:46:18.838Z,50.885548
2022-12-27T01:47:18.812Z,50.885521
2022-12-27T01:48:18.811Z,50.885582
2022-12-27T01:49:18.839Z,50.885513
2022-12-27T01:50:18.797Z,50.885605
2022-12-27T01:51:18.785Z,50.885601
2022-12-27T01:52:18.773Z,50.885578
2022-12-27T01:53:18.804Z,50.885391
2022-12-27T01:54:18.768Z,50.885525
2022-12-27T01:55:18.789Z,50.885487
2022-12-27T01:56:18.744Z,50.885487
2022-12-27T01:57:18.779Z,50.885521
2022-12-27T01:58:18.734Z,50.885479
2022-12-27T01:59:18.733Z,50.885502
2022-12-27T02:00:18.873Z,50.885494
2022-12-27T02:01:18.836Z,50.885525
2022-12-27T02:02:18.838Z,50.885567
2022-12-27T02:03:18.745Z,50.885521
2022-12-27T02:04:18.694Z,50.885452
2022-12-27T02:05:18.710Z,50.885414
2022-12-27T02:06:18.732Z,50.885445
2022-12-27T02:07:18.688Z,50.885586
2022-12-27T02:08:18.794Z,50.885574
2022-12-27T02:09:18.710Z,50.885544
2022-12-27T02:10:18.727Z,50.885551
2022-12-27T02:11:18.730Z,50.885624
2022-12-27T02:12:19.699Z,50.885479
2022-12-27T02:13:18.701Z,50.885445
2022-12-27T02:14:22.244Z,50.885464
2022-12-27T02:15:18.707Z,50.885513
2022-12-27T02:16:18.711Z,50.885468
2022-12-27T02:17:18.681Z,50.885483
2022-12-27T02:18:18.648Z,50.885544
2022-12-27T02:19:18.625Z,50.885479
2022-12-27T02:20:18.667Z,50.885571
2022-12-27T02:21:18.656Z,50.885532
2022-12-27T02:22:18.631Z,50.885475
2022-12-27T02:23:18.634Z,50.885464
2022-12-27T02:24:18.642Z,50.885517
2022-12-27T02:25:18.627Z,50.885521
2022-12-27T02:26:18.614Z,50.885445
2022-12-27T02:27:18.639Z,50.885429
2022-12-27T02:28:18.624Z,50.885464
2022-12-27T02:29:18.590Z,50.885544
2022-12-27T02:30:18.579Z,50.885406
2022-12-27T02:31:18.575Z,50.885548
2022-12-27T02:32:18.550Z,50.885601
2022-12-27T02:33:18.643Z,50.885338
2022-12-27T02:34:18.585Z,50.885483
2022-12-27T02:35:18.528Z,50.885555
2022-12-27T02:36:18.563Z,50.885590
2022-12-27T02:37:18.554Z,50.885719
2022-12-27T02:38:18.528Z,50.885693
2022-12-27T02:39:18.657Z,50.885693
2022-12-27T02:40:18.588Z,50.885628
2022-12-27T02:41:18.576Z,50.885586
2022-12-27T02:42:18.499Z,50.885571
2022-12-27T02:43:18.540Z,50.885597
2022-12-27T02:44:18.531Z,50.885654
2022-12-27T02:45:18.588Z,50.885578
2022-12-27T02:46:21.538Z,50.885632
2022-12-27T02:47:18.493Z,50.885582
2022-12-27T02:48:18.533Z,50.885548
2022-12-27T02:49:18.517Z,50.885616
2022-12-27T02:50:18.524Z,50.885658
2022-12-27T02:51:18.485Z,50.885399
2022-12-27T02:52:18.467Z,50.885567
2022-12-27T02:53:18.482Z,50.885555
2022-12-27T02:54:18.479Z,50.885609
2022-12-27T02:55:18.623Z,50.885590
2022-12-27T02:56:18.451Z,50.885590
2022-12-27T02:57:18.437Z,50.885563
2022-12-27T02:58:18.439Z,50.885502
2022-12-27T02:59:18.447Z,50.885502
2022-12-27T03:00:18.429Z,50.885365
2022-12-27T03:01:18.492Z,50.885399
2022-12-27T03:02:18.638Z,50.885490
2022-12-27T03:03:18.445Z,50.885345
2022-12-27T03:04:18.442Z,50.885380
2022-12-27T03:05:18.404Z,50.885490
2022-12-27T03:06:18.480Z,50.885475
2022-12-27T03:07:18.417Z,50.885536
2022-12-27T03:08:18.369Z,50.885525
2022-12-27T03:09:18.376Z,50.885555
2022-12-27T03:10:18.384Z,50.885414
2022-12-27T03:11:18.387Z,50.885391
2022-12-27T03:12:18.488Z,50.885391
2022-12-27T03:13:18.369Z,50.885380
2022-12-27T03:14:18.355Z,50.885700
2022-12-27T03:15:18.392Z,50.885544
2022-12-27T03:16:18.519Z,50.885391
2022-12-27T03:17:18.480Z,50.885353
2022-12-27T03:18:18.360Z,50.885448
2022-12-27T03:19:18.405Z,50.885532
2022-12-27T03:20:18.350Z,50.885715
2022-12-27T03:21:18.392Z,50.885807
2022-12-27T03:22:18.317Z,50.885502
2022-12-27T03:23:18.491Z,50.885544
2022-12-27T03:24:18.337Z,50.885513
2022-12-27T03:25:18.382Z,50.885490
2022-12-27T03:26:18.317Z,50.885551
2022-12-27T03:27:18.537Z,50.885475
2022-12-27T03:28:18.354Z,50.885288
2022-12-27T03:29:18.322Z,50.885544
2022-12-27T03:30:18.265Z,50.885601
2022-12-27T03:31:18.293Z,50.885586
2022-12-27T03:32:18.244Z,50.885643
2022-12-27T03:33:18.262Z,50.885601
2022-12-27T03:34:18.304Z,50.885479
2022-12-27T03:35:18.234Z,50.885559
2022-12-27T03:36:18.216Z,50.885517
2022-12-27T03:37:18.225Z,50.885597
2022-12-27T03:38:18.221Z,50.885525
2022-12-27T03:39:18.264Z,50.885540
2022-12-27T03:40:18.205Z,50.885414
2022-12-27T03:41:19.197Z,50.885410
2022-12-27T03:42:18.213Z,50.885426
2022-12-27T03:43:18.207Z,50.885338
2022-12-27T03:44:18.196Z,50.885410
2022-12-27T03:45:18.208Z,50.885464
2022-12-27T03:46:18.258Z,50.885422
2022-12-27T03:47:18.146Z,50.885468
2022-12-27T03:48:18.131Z,50.885483
2022-12-27T03:49:18.160Z,50.885635
2022-12-27T03:50:18.212Z,50.885429
2022-12-27T03:51:18.177Z,50.885578
2022-12-27T03:52:18.179Z,50.885540
2022-12-27T03:53:18.116Z,50.885609
2022-12-27T03:54:18.110Z,50.885582
2022-12-27T03:55:18.124Z,50.885555
2022-12-27T03:56:18.190Z,50.885494
2022-12-27T03:57:18.147Z,50.885494
2022-12-27T03:58:18.133Z,50.885471
2022-12-27T03:59:18.119Z,50.885509
2022-12-27T04:00:18.086Z,50.885559
2022-12-27T04:01:18.204Z,50.885574
2022-12-27T04:02:18.595Z,50.885544
2022-12-27T04:03:18.144Z,50.885475
2022-12-27T04:04:18.097Z,50.885487
2022-12-27T04:05:18.111Z,50.885323
2022-12-27T04:06:18.042Z,50.885376
2022-12-27T04:07:18.126Z,50.885464
2022-12-27T04:08:18.051Z,50.885506
2022-12-27T04:09:18.082Z,50.885525
2022-12-27T04:10:18.051Z,50.885559
2022-12-27T04:11:18.057Z,50.885410
2022-12-27T04:12:18.166Z,50.885406
2022-12-27T04:13:18.052Z,50.885609
2022-12-27T04:14:18.069Z,50.885616
2022-12-27T04:15:18.033Z,50.885578
2022-12-27T04:16:18.040Z,50.885639
2022-12-27T04:17:18.040Z,50.885498
2022-12-27T04:18:18.127Z,50.885536
2022-12-27T04:19:18.032Z,50.885567
2022-12-27T04:20:18.009Z,50.885555
2022-12-27T04:21:18.001Z,50.885288
2022-12-27T04:22:18.994Z,50.885807
2022-12-27T04:23:18.023Z,50.885429
2022-12-27T04:24:18.015Z,50.885178
2022-12-27T04:25:17.999Z,50.885025
2022-12-27T04:26:17.971Z,50.885227
2022-12-27T04:27:17.987Z,50.885460
2022-12-27T04:28:17.948Z,50.885555
2022-12-27T04:29:17.993Z,50.885559
2022-12-27T04:30:17.987Z,50.885895
2022-12-27T04:31:18.012Z,50.885345
2022-12-27T04:32:17.942Z,50.885563
2022-12-27T04:33:17.939Z,50.885406
2022-12-27T04:34:17.915Z,50.885555
2022-12-27T04:35:17.955Z,50.885567
2022-12-27T04:36:17.951Z,50.885597
2022-12-27T04:37:17.931Z,50.885544
2022-12-27T04:38:17.889Z,50.885601
2022-12-27T04:39:17.978Z,50.885593
2022-12-27T04:40:17.964Z,50.885551
2022-12-27T04:41:17.908Z,50.885563
2022-12-27T04:42:17.863Z,50.885597
2022-12-27T04:43:17.893Z,50.885536
2022-12-27T04:44:17.871Z,50.885506
2022-12-27T04:45:17.903Z,50.885471
2022-12-27T04:46:17.894Z,50.885406
2022-12-27T04:47:17.855Z,50.885498
2022-12-27T04:48:17.873Z,50.885483
2022-12-27T04:49:17.873Z,50.885471
2022-12-27T04:50:17.842Z,50.885498
2022-12-27T04:51:17.928Z,50.885479
2022-12-27T04:52:17.841Z,50.885410
2022-12-27T04:53:17.814Z,50.885479
2022-12-27T04:54:17.811Z,50.885582
2022-12-27T04:55:17.801Z,50.885609
2022-12-27T04:56:17.858Z,50.885624
2022-12-27T04:57:17.778Z,50.885521
2022-12-27T04:58:17.807Z,50.885593
2022-12-27T04:59:17.782Z,50.885525
2022-12-27T05:00:17.803Z,50.885521
2022-12-27T05:01:17.868Z,50.885574
2022-12-27T05:02:17.880Z,50.885681
2022-12-27T05:03:17.870Z,50.885639
2022-12-27T05:04:17.788Z,50.885311
2022-12-27T05:05:17.768Z,50.885338
2022-12-27T05:06:17.800Z,50.885384
2022-12-27T05:07:17.852Z,50.885357
2022-12-27T05:08:17.765Z,50.885315
2022-12-27T05:09:23.061Z,50.885448
2022-12-27T05:10:18.729Z,50.885551
2022-12-27T05:11:17.759Z,50.885372
2022-12-27T05:12:17.761Z,50.885361
2022-12-27T05:13:17.812Z,50.885406
2022-12-27T05:14:17.739Z,50.885406
2022-12-27T05:15:17.711Z,50.885544
2022-12-27T05:16:17.721Z,50.885475
2022-12-27T05:17:17.726Z,50.885490
2022-12-27T05:18:17.808Z,50.885647
2022-12-27T05:19:17.679Z,50.885719
2022-12-27T05:20:17.712Z,50.885593
2022-12-27T05:21:17.659Z,50.885586
2022-12-27T05:22:17.660Z,50.885643
2022-12-27T05:23:17.693Z,50.885361
2022-12-27T05:24:17.677Z,50.885651
2022-12-27T05:25:17.715Z,50.885666
2022-12-27T05:26:17.645Z,50.885731
2022-12-27T05:27:17.720Z,50.885674
2022-12-27T05:28:17.676Z,50.885582
2022-12-27T05:29:17.763Z,50.885807
2022-12-27T05:30:17.663Z,50.886032
2022-12-27T05:31:17.644Z,50.885971
2022-12-27T05:32:17.602Z,50.885853
2022-12-27T05:33:17.648Z,50.886173
2022-12-27T05:34:17.653Z,50.886402
2022-12-27T05:35:17.721Z,50.886082
2022-12-27T05:36:17.564Z,50.885853
2022-12-27T05:37:17.582Z,50.885582
2022-12-27T05:38:17.620Z,50.885788
2022-12-27T05:39:17.561Z,50.885708
2022-12-27T05:40:17.656Z,50.885834
2022-12-27T05:41:17.600Z,50.885944
2022-12-27T05:42:17.629Z,50.886070
2022-12-27T05:43:17.572Z,50.886032
2022-12-27T05:44:17.606Z,50.885918
2022-12-27T05:45:17.599Z,50.885853
2022-12-27T05:46:17.687Z,50.885693
2022-12-27T05:47:17.540Z,50.885624
2022-12-27T05:48:17.534Z,50.885662
2022-12-27T05:49:17.521Z,50.885624
2022-12-27T05:50:17.586Z,50.885639
2022-12-27T05:51:17.642Z,50.885693
2022-12-27T05:52:17.536Z,50.885696
2022-12-27T05:53:17.555Z,50.885674
2022-12-27T05:54:17.518Z,50.885715
2022-12-27T05:55:17.537Z,50.885792
2022-12-27T05:56:17.497Z,50.885811
2022-12-27T05:57:17.530Z,50.885757
2022-12-27T05:58:17.468Z,50.885674
2022-12-27T05:59:17.534Z,50.885773
2022-12-27T06:00:17.493Z,50.885788
2022-12-27T06:01:17.543Z,50.885803
2022-12-27T06:02:17.679Z,50.885769
2022-12-27T06:03:17.506Z,50.885780
2022-12-27T06:04:17.438Z,50.885605
2022-12-27T06:05:17.441Z,50.885586
2022-12-27T06:06:17.461Z,50.885509
2022-12-27T06:07:17.434Z,50.885468
2022-12-27T06:08:17.554Z,50.885757
2022-12-27T06:09:17.454Z,50.885834
2022-12-27T06:10:17.415Z,50.885509
2022-12-27T06:11:17.439Z,50.885586
2022-12-27T06:12:17.384Z,50.885544
2022-12-27T06:13:17.472Z,50.885574
2022-12-27T06:14:17.393Z,50.885532
2022-12-27T06:15:17.408Z,50.885536
2022-12-27T06:16:17.365Z,50.885406
2022-12-27T06:17:17.340Z,50.885513
2022-12-27T06:18:17.355Z,50.885456
2022-12-27T06:19:17.508Z,50.885513
2022-12-27T06:20:17.340Z,50.885525
2022-12-27T06:21:17.352Z,50.885471
2022-12-27T06:22:17.354Z,50.885624
2022-12-27T06:23:17.340Z,50.885628
2022-12-27T06:24:17.344Z,50.885567
2022-12-27T06:25:17.308Z,50.885620
2022-12-27T06:26:17.301Z,50.885429
2022-12-27T06:27:17.298Z,50.885609
2022-12-27T06:28:17.299Z,50.885788
2022-12-27T06:29:17.305Z,50.885715
2022-12-27T06:30:17.436Z,50.885616
2022-12-27T06:31:17.335Z,50.885548
2022-12-27T06:32:17.319Z,50.885593
2022-12-27T06:33:17.271Z,50.885677
2022-12-27T06:34:17.264Z,50.885632
2022-12-27T06:35:17.369Z,50.885567
2022-12-27T06:36:17.272Z,50.885544
2022-12-27T06:37:17.275Z,50.885586
2022-12-27T06:38:17.212Z,50.885517
2022-12-27T06:39:17.212Z,50.885506
2022-12-27T06:40:17.267Z,50.885616
2022-12-27T06:41:17.288Z,50.885605
2022-12-27T06:42:17.208Z,50.885635
2022-12-27T06:43:17.221Z,50.885681
2022-12-27T06:44:17.220Z,50.885666
2022-12-27T06:45:17.185Z,50.885605
2022-12-27T06:46:18.193Z,50.885597
2022-12-27T06:47:17.220Z,50.885632
2022-12-27T06:48:17.209Z,50.885609
2022-12-27T06:49:17.143Z,50.885620
2022-12-27T06:50:17.157Z,50.885574
2022-12-27T06:51:17.166Z,50.885597
2022-12-27T06:52:17.208Z,50.885574
2022-12-27T06:53:17.151Z,50.885529
2022-12-27T06:54:17.128Z,50.885517
2022-12-27T06:55:17.100Z,50.885502
2022-12-27T06:56:17.187Z,50.885517
2022-12-27T06:57:17.226Z,50.885544
2022-12-27T06:58:17.098Z,50.885536
2022-12-27T06:59:17.106Z,50.885544
2022-12-27T07:00:17.112Z,50.885540
2022-12-27T07:01:17.273Z,50.885517
2022-12-27T07:02:17.269Z,50.885471
2022-12-27T07:03:17.123Z,50.885452
2022-12-27T07:04:17.119Z,50.885456
2022-12-27T07:05:17.189Z,50.885448
2022-12-27T07:06:17.058Z,50.885452
2022-12-27T07:07:17.114Z,50.885536
2022-12-27T07:08:17.092Z,50.885620
2022-12-27T07:09:17.056Z,50.885597
2022-12-27T07:10:17.048Z,50.885571
2022-12-27T07:11:17.078Z,50.885582
2022-12-27T07:12:17.044Z,50.885578
2022-12-27T07:13:17.086Z,50.885590
2022-12-27T07:14:17.054Z,50.885597
2022-12-27T07:15:17.056Z,50.885616
2022-12-27T07:16:17.110Z,50.885601
2022-12-27T07:17:17.009Z,50.885574
2022-12-27T07:18:17.000Z,50.885647
2022-12-27T07:19:17.030Z,50.885574
2022-12-27T07:20:17.004Z,50.885620
2022-12-27T07:21:17.023Z,50.885551
2022-12-27T07:22:16.982Z,50.885464
2022-12-27T07:23:19.385Z,50.885513
2022-12-27T07:24:17.987Z,50.885479
2022-12-27T07:25:16.968Z,50.885513
2022-12-27T07:26:16.939Z,50.885532
2022-12-27T07:27:16.981Z,50.885571
2022-12-27T07:28:16.967Z,50.885551
2022-12-27T07:29:16.939Z,50.885445
2022-12-27T07:30:16.972Z,50.885536
2022-12-27T07:31:17.015Z,50.885483
2022-12-27T07:32:16.903Z,50.885483
2022-12-27T07:33:16.908Z,50.885471
2022-12-27T07:34:16.919Z,50.885483
2022-12-27T07:35:16.963Z,50.885612
2022-12-27T07:36:16.929Z,50.885578
2022-12-27T07:37:16.927Z,50.885483
2022-12-27T07:38:16.886Z,50.885483
2022-12-27T07:39:16.896Z,50.885441
2022-12-27T07:40:16.893Z,50.885437
2022-12-27T07:41:17.011Z,50.885445
2022-12-27T07:42:16.893Z,50.885532
2022-12-27T07:43:16.909Z,50.885555
2022-12-27T07:44:16.839Z,50.885551
2022-12-27T07:45:16.877Z,50.885704
2022-12-27T07:46:16.993Z,50.885628
2022-12-27T07:47:16.842Z,50.885490
2022-12-27T07:48:16.864Z,50.885506
2022-12-27T07:49:18.130Z,50.885426
2022-12-27T07:50:16.848Z,50.885456
2022-12-27T07:51:16.851Z,50.885464
2022-12-27T07:52:16.836Z,50.885468
2022-12-27T07:53:16.827Z,50.885456
2022-12-27T07:54:16.816Z,50.885517
2022-12-27T07:55:16.851Z,50.885498
2022-12-27T07:56:21.709Z,50.885368
2022-12-27T07:57:17.879Z,50.885437
2022-12-27T07:58:16.787Z,50.885448
2022-12-27T07:59:16.751Z,50.885448
2022-12-27T08:00:17.777Z,50.885483
2022-12-27T08:01:16.828Z,50.885414
2022-12-27T08:02:16.949Z,50.885403
2022-12-27T08:03:16.934Z,50.885460
2022-12-27T08:04:16.794Z,50.885696
2022-12-27T08:05:16.712Z,50.885582
2022-12-27T08:06:16.742Z,50.885685
2022-12-27T08:07:16.738Z,50.885643
2022-12-27T08:08:16.772Z,50.885616
2022-12-27T08:09:16.733Z,50.885586
2022-12-27T08:10:16.728Z,50.885437
2022-12-27T08:11:16.759Z,50.885433
2022-12-27T08:12:16.775Z,50.885120
2022-12-27T08:13:16.718Z,50.885239
2022-12-27T08:14:16.840Z,50.885349
2022-12-27T08:15:16.697Z,50.885300
2022-12-27T08:16:16.738Z,50.885521
2022-12-27T08:17:16.742Z,50.885635
2022-12-27T08:18:16.685Z,50.885502
2022-12-27T08:19:16.809Z,50.885548
2022-12-27T08:20:16.699Z,50.885616
2022-12-27T08:21:16.683Z,50.885513
2022-12-27T08:22:16.652Z,50.885414
2022-12-27T08:23:16.658Z,50.885384
2022-12-27T08:24:16.609Z,50.885521
2022-12-27T08:25:16.700Z,50.885311
2022-12-27T08:26:16.629Z,50.885372
2022-12-27T08:27:17.636Z,50.885498
2022-12-27T08:28:16.634Z,50.885468
2022-12-27T08:29:16.620Z,50.885571
2022-12-27T08:30:16.627Z,50.885506
2022-12-27T08:31:16.652Z,50.885357
2022-12-27T08:32:16.617Z,50.885284
2022-12-27T08:33:16.566Z,50.885281
2022-12-27T08:34:16.582Z,50.885319
2022-12-27T08:35:50.925Z,50.885303
2022-12-27T08:37:17.576Z,50.885395
2022-12-27T08:38:16.562Z,50.885361
2022-12-27T08:39:16.587Z,50.885399
2022-12-27T08:40:16.552Z,50.885517
2022-12-27T08:41:16.566Z,50.885654
2022-12-27T08:42:16.527Z,50.885689
2022-12-27T08:43:16.564Z,50.885639
2022-12-27T08:44:16.502Z,50.885410
2022-12-27T08:45:16.491Z,50.885365
2022-12-27T08:46:16.571Z,50.885162
2022-12-27T08:47:16.499Z,50.885166
2022-12-27T08:48:16.594Z,50.885166
2022-12-27T08:49:16.491Z,50.885445
2022-12-27T08:50:16.483Z,50.885475
2022-12-27T08:51:23.419Z,50.885529
2022-12-27T08:52:18.497Z,50.885521
2022-12-27T08:53:16.446Z,50.885307
2022-12-27T08:54:16.463Z,50.885330
2022-12-27T08:55:16.473Z,50.885448
2022-12-27T08:56:16.467Z,50.885536
2022-12-27T08:57:16.464Z,50.885498
2022-12-27T08:58:16.752Z,50.885563
2022-12-27T08:59:16.438Z,50.885590
2022-12-27T09:00:16.383Z,50.885475
2022-12-27T09:01:16.492Z,50.885609
2022-12-27T09:02:16.674Z,50.885628
2022-12-27T09:03:16.477Z,50.885517
2022-12-27T09:04:16.420Z,50.885582
2022-12-27T09:05:16.358Z,50.885563
2022-12-27T09:06:16.378Z,50.885609
2022-12-27T09:07:16.408Z,50.885597
2022-12-27T09:08:16.361Z,50.885639
2022-12-27T09:09:16.376Z,50.885647
2022-12-27T09:10:16.343Z,50.885612
2022-12-27T09:11:16.381Z,50.885658
2022-12-27T09:12:16.365Z,50.885624
2022-12-27T09:13:16.355Z,50.885605
2022-12-27T09:14:16.339Z,50.885719
2022-12-27T09:15:16.307Z,50.885742
2022-12-27T09:16:16.363Z,50.885761
2022-12-27T09:17:16.320Z,50.885773
2022-12-27T09:18:16.278Z,50.885784
2022-12-27T09:19:16.256Z,50.885822
2022-12-27T09:20:16.296Z,50.885803
2022-12-27T09:21:16.261Z,50.885803
2022-12-27T09:22:16.282Z,50.885811
2022-12-27T09:23:16.243Z,50.885864
2022-12-27T09:24:16.254Z,50.885815
2022-12-27T09:25:16.334Z,50.885986
2022-12-27T09:26:16.259Z,50.886040
2022-12-27T09:27:16.236Z,50.886078
2022-12-27T09:28:16.227Z,50.885994
2022-12-27T09:29:16.240Z,50.885876
2022-12-27T09:30:16.192Z,50.885841
2022-12-27T09:31:16.235Z,50.885815
2022-12-27T09:32:16.222Z,50.885654
2022-12-27T09:33:16.151Z,50.885651
2022-12-27T09:34:16.187Z,50.885696
2022-12-27T09:35:16.169Z,50.885658
2022-12-27T09:36:16.158Z,50.885399
2022-12-27T09:37:16.270Z,50.885563
2022-12-27T09:38:16.212Z,50.885517
2022-12-27T09:39:16.187Z,50.885628
2022-12-27T09:40:16.154Z,50.885597
2022-12-27T09:41:19.395Z,50.885761
2022-12-27T09:43:25.426Z,50.885479
2022-12-27T09:44:17.108Z,50.885384
2022-12-27T09:45:16.102Z,50.885540
2022-12-27T09:46:16.096Z,50.885700
2022-12-27T09:47:16.142Z,50.885548
2022-12-27T09:48:16.196Z,50.885571
2022-12-27T09:49:16.086Z,50.885593
2022-12-27T09:50:16.094Z,50.885597
2022-12-27T09:51:16.091Z,50.885532
2022-12-27T09:52:16.073Z,50.885445
2022-12-27T09:53:16.086Z,50.885746
2022-12-27T09:54:16.062Z,50.885574
2022-12-27T09:55:16.032Z,50.885303
2022-12-27T09:56:16.061Z,50.885384
2022-12-27T09:57:20.423Z,50.885483
2022-12-27T09:58:17.046Z,50.885376
2022-12-27T09:59:16.023Z,50.885506
2022-12-27T10:00:16.031Z,50.885578
2022-12-27T10:01:16.108Z,50.885452
2022-12-27T10:02:16.086Z,50.885406
2022-12-27T10:03:16.020Z,50.885448
2022-12-27T10:04:16.078Z,50.885345
2022-12-27T10:05:20.781Z,50.885670
2022-12-27T10:06:16.967Z,50.885227
2022-12-27T10:07:15.977Z,50.885326
2022-12-27T10:08:15.975Z,50.885376
2022-12-27T10:09:16.004Z,50.885471
2022-12-27T10:10:15.951Z,50.885479
2022-12-27T10:11:15.963Z,50.885544
2022-12-27T10:12:15.924Z,50.885494
2022-12-27T10:13:15.898Z,50.885559
2022-12-27T10:14:15.923Z,50.885471
2022-12-27T10:15:16.244Z,50.885342
2022-12-27T10:16:15.963Z,50.885281
2022-12-27T10:17:15.906Z,50.885342
2022-12-27T10:18:15.886Z,50.885456
2022-12-27T10:19:15.896Z,50.885555
2022-12-27T10:20:15.924Z,50.885597
2022-12-27T10:21:15.876Z,50.885311
2022-12-27T10:22:15.843Z,50.885422
2022-12-27T10:23:15.904Z,50.885410
2022-12-27T10:24:15.894Z,50.885498
2022-12-27T10:25:15.820Z,50.885460
2022-12-27T10:26:15.902Z,50.885452
2022-12-27T10:27:15.824Z,50.885498
2022-12-27T10:28:15.859Z,50.885551
2022-12-27T10:29:15.807Z,50.885536
2022-12-27T10:30:15.790Z,50.885494
2022-12-27T10:31:15.882Z,50.885384
2022-12-27T10:32:15.832Z,50.885475
2022-12-27T10:33:15.818Z,50.885590
2022-12-27T10:34:15.786Z,50.885551
2022-12-27T10:35:15.785Z,50.885357
2022-12-27T10:36:15.774Z,50.885464
2022-12-27T10:37:15.816Z,50.885548
2022-12-27T10:38:15.783Z,50.885460
2022-12-27T10:39:15.808Z,50.885597
2022-12-27T10:40:15.751Z,50.885536
2022-12-27T10:41:15.752Z,50.885578
2022-12-27T10:42:15.887Z,50.885635
2022-12-27T10:43:15.723Z,50.885643
2022-12-27T10:44:15.727Z,50.885571
2022-12-27T10:45:15.743Z,50.885517
2022-12-27T10:46:15.752Z,50.885590
2022-12-27T10:47:16.725Z,50.885567
2022-12-27T10:48:15.660Z,50.885521
2022-12-27T10:49:22.983Z,50.885590
2022-12-27T10:50:17.771Z,50.885479
2022-12-27T10:51:15.704Z,50.885513
2022-12-27T10:52:15.664Z,50.885571
2022-12-27T10:53:15.775Z,50.885571
2022-12-27T10:54:15.671Z,50.885563
2022-12-27T10:55:15.674Z,50.885441
2022-12-27T10:56:15.677Z,50.885441
2022-12-27T10:57:15.651Z,50.885727
2022-12-27T10:58:15.785Z,50.885582
2022-12-27T10:59:15.635Z,50.885525
2022-12-27T11:00:15.643Z,50.885616
2022-12-27T11:01:15.705Z,50.885471
2022-12-27T11:02:15.736Z,50.885551
2022-12-27T11:03:15.623Z,50.885551
2022-12-27T11:04:20.061Z,50.885529
2022-12-27T11:05:16.613Z,50.885746
2022-12-27T11:06:15.623Z,50.885609
2022-12-27T11:07:15.608Z,50.885632
2022-12-27T11:08:15.614Z,50.885525
2022-12-27T11:09:15.681Z,50.885490
2022-12-27T11:10:15.568Z,50.885490
2022-12-27T11:11:15.577Z,50.885593
2022-12-27T11:12:15.559Z,50.885628
2022-12-27T11:13:15.580Z,50.885635
2022-12-27T11:14:15.584Z,50.885750
2022-12-27T11:15:15.794Z,50.885696
2022-12-27T11:16:15.580Z,50.885635
2022-12-27T11:17:15.565Z,50.885612
2022-12-27T11:18:15.563Z,50.885502
2022-12-27T11:19:15.557Z,50.885105
2022-12-27T11:20:15.519Z,50.885391
2022-12-27T11:21:25.618Z,50.885529
2022-12-27T11:22:16.532Z,50.885586
2022-12-27T11:23:15.529Z,50.885532
2022-12-27T11:24:15.486Z,50.885620
2022-12-27T11:25:15.465Z,50.885567
2022-12-27T11:26:15.742Z,50.885628